Time;durP1;ratioP1;P1;durP2;ratioP2;P2;SDS_P1;SDS_P2;PMS_P1;PMS_P2;Temp;Humidity;BMP_temperature;BMP_pressure;BME280_temperature;BME280_humidity;BME280_pressure;Samples;Min_cycle;Max_cycle;Signal;HPM_P1;HPM_P2
2021/07/20 00:00:28;;;;;;;16.30;10.73;;;;;;;15.73;72.73;100740.69;5097216;28;20473;-82
2021/07/20 00:02:58;;;;;;;16.70;11.52;;;;;;;15.73;72.93;100732.28;5095972;28;20048;-82
2021/07/20 00:05:27;;;;;;;16.10;11.57;;;;;;;15.71;72.97;100728.94;5096876;28;20048;-82
2021/07/20 00:07:56;;;;;;;16.77;11.85;;;;;;;15.67;72.93;100728.00;5096397;28;20044;-83
2021/07/20 00:10:26;;;;;;;16.83;11.88;;;;;;;15.61;73.26;100725.38;5098049;28;20055;-82
2021/07/20 00:12:57;;;;;;;14.90;11.40;;;;;;;15.58;73.31;100725.22;5100766;28;20047;-83
2021/07/20 00:15:27;;;;;;;16.75;12.05;;;;;;;15.54;73.72;100718.66;5100879;28;20392;-82
2021/07/20 00:17:59;;;;;;;15.57;12.02;;;;;;;15.52;73.48;100713.41;5101658;28;20051;-82
2021/07/20 00:20:29;;;;;;;15.45;11.10;;;;;;;15.49;73.64;100716.06;5100867;28;20071;-83
2021/07/20 00:22:56;;;;;;;;;;;;;;;15.45;73.35;100715.09;5101013;28;20052;-82
2021/07/20 00:25:24;;;;;;;20.10;11.50;;;;;;;15.42;73.45;100717.44;5100954;28;20349;-82
2021/07/20 00:27:51;;;;;;;19.17;11.43;;;;;;;15.40;73.41;100719.75;5101111;28;20447;-82
2021/07/20 00:30:18;;;;;;;20.05;11.70;;;;;;;15.39;73.51;100722.91;5099738;28;20047;-81
2021/07/20 00:32:46;;;;;;;19.48;12.02;;;;;;;15.37;73.36;100726.06;5100424;28;20063;-82
2021/07/20 00:35:15;;;;;;;16.30;11.27;;;;;;;15.33;73.34;100716.69;5100874;28;20386;-82
2021/07/20 00:37:43;;;;;;;19.30;12.48;;;;;;;15.31;73.62;100729.41;5100390;28;20055;-82
2021/07/20 00:40:13;;;;;;;16.08;12.07;;;;;;;15.30;73.64;100714.53;5102438;28;20487;-82
2021/07/20 00:42:41;;;;;;;18.85;12.02;;;;;;;15.28;74.25;100714.06;5100464;28;20048;-82
2021/07/20 00:45:11;;;;;;;19.73;11.85;;;;;;;15.29;74.29;100712.91;5099639;28;20400;-82
2021/07/20 00:47:39;;;;;;;16.90;11.30;;;;;;;15.28;74.59;100711.25;5100567;28;20409;-82
2021/07/20 00:50:08;;;;;;;17.02;10.98;;;;;;;15.31;74.29;100716.19;5099584;28;20058;-83
2021/07/20 00:52:38;;;;;;;19.63;11.70;;;;;;;15.32;74.45;100717.00;5100031;28;20052;-83
2021/07/20 00:55:07;;;;;;;18.60;11.43;;;;;;;15.34;74.24;100721.13;5098494;28;20055;-83
2021/07/20 00:57:35;;;;;;;16.73;11.23;;;;;;;15.31;74.39;100719.00;5100775;28;20056;-82
2021/07/20 01:00:06;;;;;;;16.70;12.30;;;;;;;15.23;74.26;100706.66;5099546;28;20064;-82
2021/07/20 01:02:33;;;;;;;17.52;11.93;;;;;;;15.20;74.38;100714.94;5099785;28;20056;-82
2021/07/20 01:05:01;;;;;;;16.17;11.55;;;;;;;15.20;74.52;100714.94;5097051;28;20048;-81
2021/07/20 01:07:29;;;;;;;20.23;13.07;;;;;;;15.17;74.72;100713.63;5094119;28;20056;-82
2021/07/20 01:09:59;;;;;;;18.80;12.95;;;;;;;15.17;74.50;100715.63;5099076;28;20048;-83
2021/07/20 01:12:27;;;;;;;;;;;;;;;15.08;74.64;100717.69;5099909;28;20051;-83
2021/07/20 01:14:55;;;;;;;17.55;11.23;;;;;;;15.12;74.24;100707.38;5099711;28;19920;-82
2021/07/20 01:17:23;;;;;;;19.00;11.65;;;;;;;15.08;74.22;100714.88;5098827;28;20055;-82
2021/07/20 01:19:53;;;;;;;17.00;12.02;;;;;;;15.09;74.13;100714.50;5099269;28;20071;-81
2021/07/20 01:22:24;;;;;;;17.90;12.93;;;;;;;15.04;73.95;100716.72;5099155;28;20055;-81
2021/07/20 01:24:54;;;;;;;18.83;12.73;;;;;;;14.94;73.84;100724.31;5099056;28;20048;-83
2021/07/20 01:27:21;;;;;;;18.40;12.35;;;;;;;14.89;74.24;100716.13;5099563;28;20055;-81
2021/07/20 01:29:49;;;;;;;22.85;13.27;;;;;;;14.86;74.37;100708.38;5099662;28;20059;-81
2021/07/20 01:32:22;;;;;;;19.27;12.85;;;;;;;14.75;74.83;100705.13;5100071;28;20051;-82
2021/07/20 01:34:51;;;;;;;20.23;13.52;;;;;;;14.75;75.00;100713.53;5099303;28;20051;-81
2021/07/20 01:37:20;;;;;;;20.80;13.68;;;;;;;14.73;75.21;100709.44;5099341;28;20055;-81
2021/07/20 01:39:49;;;;;;;19.03;12.93;;;;;;;14.65;75.23;100710.28;5098758;28;20056;-82
2021/07/20 01:42:19;;;;;;;20.50;13.50;;;;;;;14.64;75.01;100700.25;5099363;28;20048;-82
2021/07/20 01:44:46;;;;;;;19.75;12.63;;;;;;;14.63;74.85;100715.41;5098900;28;20051;-81
2021/07/20 01:47:16;;;;;;;21.48;13.15;;;;;;;14.64;75.08;100711.47;5098806;28;20052;-81
2021/07/20 01:49:44;;;;;;;17.70;11.60;;;;;;;14.59;74.85;100718.88;5098566;28;20047;-81
2021/07/20 01:52:13;;;;;;;20.80;13.60;;;;;;;14.58;74.77;100714.44;5098682;28;20056;-81
2021/07/20 01:54:44;;;;;;;22.07;12.73;;;;;;;14.57;75.13;100718.41;5098533;28;20051;-82
2021/07/20 01:57:12;;;;;;;19.48;12.90;;;;;;;14.53;75.26;100720.19;5098667;28;20059;-81
2021/07/20 01:59:42;;;;;;;17.95;12.13;;;;;;;14.47;75.51;100715.09;5098816;28;20063;-82
2021/07/20 02:02:25;;;;;;;20.65;13.10;;;;;;;14.50;75.76;100715.25;5098052;28;20052;-82
2021/07/20 02:10:21;;;;;;;17.48;11.95;;;;;;;14.54;74.68;100730.25;5103541;28;20048;-81
2021/07/20 02:12:51;;;;;;;20.08;13.05;;;;;;;14.57;74.57;100729.63;5105400;28;20052;-82
2021/07/20 02:15:20;;;;;;;17.83;12.10;;;;;;;14.49;74.24;100721.19;5098225;28;20055;-81
2021/07/20 02:17:49;;;;;;;18.25;12.40;;;;;;;14.37;74.50;100728.31;5097766;28;20051;-82
2021/07/20 02:20:20;;;;;;;19.10;11.07;;;;;;;14.31;74.12;100721.25;5098680;28;20059;-82
2021/07/20 02:22:47;;;;;;;18.48;12.07;;;;;;;14.29;73.98;100726.34;5097749;28;20048;-83
2021/07/20 02:25:16;;;;;;;19.27;11.70;;;;;;;14.21;74.32;100722.44;5096841;28;20047;-82
2021/07/20 02:27:44;;;;;;;19.25;12.55;;;;;;;14.17;74.37;100723.41;5097755;28;20048;-82
2021/07/20 02:30:19;;;;;;;20.90;12.98;;;;;;;14.12;74.63;100726.41;5097646;28;20048;-82
2021/07/20 02:32:52;;;;;;;18.83;13.45;;;;;;;14.08;74.40;100722.63;5098258;28;20044;-82
2021/07/20 02:35:25;;;;;;;19.08;12.45;;;;;;;14.00;74.90;100727.88;5097889;28;20070;-83
2021/07/20 02:37:58;;;;;;;21.45;12.98;;;;;;;14.01;75.08;100734.31;5104407;28;20067;-82
2021/07/20 02:40:36;;;;;;;20.60;12.52;;;;;;;13.96;74.93;100728.88;5104741;28;20052;-83
2021/07/20 02:43:04;;;;;;;20.17;13.52;;;;;;;13.89;75.21;100728.56;5104410;28;20058;-81
2021/07/20 02:45:36;;;;;;;23.80;14.60;;;;;;;13.74;76.08;100725.13;5104746;28;20059;-80
2021/07/20 02:48:08;;;;;;;21.40;13.95;;;;;;;13.77;76.34;100727.28;5104723;28;20058;-82
2021/07/20 02:50:36;;;;;;;24.50;13.93;;;;;;;13.73;77.04;100719.84;5104660;28;20048;-81
2021/07/20 02:53:05;;;;;;;19.52;13.60;;;;;;;13.82;76.59;100717.88;5104527;28;20052;-83
2021/07/20 02:55:34;;;;;;;19.63;13.13;;;;;;;13.80;76.55;100732.19;5104411;28;20052;-83
2021/07/20 02:58:03;;;;;;;23.05;13.07;;;;;;;13.89;76.67;100731.38;5104234;28;20048;-81
2021/07/20 03:00:32;;;;;;;23.63;14.02;;;;;;;13.95;76.99;100725.25;5105221;28;20052;-82
2021/07/20 03:02:59;;;;;;;21.05;13.15;;;;;;;13.96;76.93;100721.31;5104438;28;20059;-83
2021/07/20 03:05:28;;;;;;;24.08;15.10;;;;;;;14.10;76.85;100720.31;5104283;28;20055;-82
2021/07/20 03:07:59;;;;;;;29.25;16.42;;;;;;;14.23;76.09;100724.06;5102996;28;20059;-83
2021/07/20 03:10:29;;;;;;;28.92;16.33;;;;;;;14.23;76.24;100724.88;5103763;28;20052;-82
2021/07/20 03:13:02;;;;;;;28.33;15.85;;;;;;;14.25;76.13;100722.56;5102563;28;20048;-81
2021/07/20 03:15:31;;;;;;;22.75;14.90;;;;;;;14.27;76.25;100722.25;5103923;28;20062;-81
2021/07/20 03:18:01;;;;;;;23.13;14.93;;;;;;;14.27;76.33;100722.25;5102931;28;20055;-81
2021/07/20 03:20:35;;;;;;;19.45;13.93;;;;;;;14.30;76.26;100721.56;5102479;28;20056;-82
2021/07/20 03:23:04;;;;;;;18.85;14.05;;;;;;;14.33;76.40;100710.53;5102130;28;20060;-82
2021/07/20 03:25:32;;;;;;;22.40;14.80;;;;;;;14.31;75.97;100717.63;5100850;28;20055;-82
2021/07/20 03:28:00;;;;;;;21.75;14.57;;;;;;;14.28;75.73;100707.91;5101510;28;20062;-82
2021/07/20 03:30:32;;;;;;;22.67;14.18;;;;;;;14.24;75.88;100717.28;5102965;28;20051;-82
2021/07/20 03:33:01;;;;;;;21.85;13.75;;;;;;;14.16;75.68;100705.78;5102082;28;20056;-82
2021/07/20 03:35:33;;;;;;;21.73;14.38;;;;;;;14.12;76.17;100713.22;5102478;28;20063;-81
2021/07/20 03:38:01;;;;;;;22.90;15.23;;;;;;;14.05;76.34;100715.72;5102418;28;20048;-82
2021/07/20 03:40:30;;;;;;;23.00;15.35;;;;;;;14.06;76.21;100713.72;5101763;28;20055;-81
2021/07/20 03:42:58;;;;;;;23.65;15.10;;;;;;;14.07;76.30;100710.59;5102349;28;20048;-82
2021/07/20 03:45:26;;;;;;;22.75;15.60;;;;;;;14.14;76.21;100713.69;5101242;28;20048;-82
2021/07/20 03:47:54;;;;;;;23.08;13.70;;;;;;;14.15;75.76;100711.72;5101371;28;20059;-82
2021/07/20 03:50:24;;;;;;;20.60;13.07;;;;;;;14.13;75.92;100712.06;5102114;28;20055;-82
2021/07/20 03:52:54;;;;;;;30.50;13.52;;;;;;;14.11;76.00;100714.38;5101926;28;20487;-82
2021/07/20 03:55:21;;;;;;;;;;;;;;;14.07;76.48;100715.34;5101661;28;20055;-82
2021/07/20 03:57:49;;;;;;;22.02;13.43;;;;;;;14.08;76.33;100719.81;5091422;28;19920;-81
2021/07/20 04:00:16;;;;;;;20.00;13.15;;;;;;;14.18;75.94;100720.28;5093100;28;20068;-82
2021/07/20 04:02:50;;;;;;;18.40;12.90;;;;;;;14.25;74.98;100727.38;5102277;28;20067;-82
2021/07/20 04:05:19;;;;;;;17.73;13.05;;;;;;;14.33;74.62;100715.31;5100576;28;20059;-81
2021/07/20 04:07:48;;;;;;;19.23;12.40;;;;;;;14.35;75.16;100718.59;5100778;28;20485;-81
2021/07/20 04:10:17;;;;;;;17.33;12.98;;;;;;;14.41;75.14;100723.69;5097791;28;20059;-82
2021/07/20 04:12:45;;;;;;;21.95;13.45;;;;;;;14.50;75.78;100737.66;5101260;28;20055;-81
2021/07/20 04:15:16;;;;;;;18.45;11.65;;;;;;;14.61;75.50;100726.94;5101182;28;20052;-81
2021/07/20 04:17:44;;;;;;;14.82;11.82;;;;;;;14.70;75.08;100732.50;5101115;28;20044;-82
2021/07/20 04:20:13;;;;;;;15.73;11.15;;;;;;;14.82;74.18;100741.03;5101037;28;20071;-81
2021/07/20 04:22:42;;;;;;;13.70;10.20;;;;;;;14.93;73.36;100731.13;5099975;28;20056;-81
2021/07/20 04:25:11;;;;;;;17.35;10.80;;;;;;;15.01;72.84;100735.84;5102629;28;20055;-81
2021/07/20 04:27:41;;;;;;;16.52;11.23;;;;;;;15.07;72.26;100730.84;5118969;28;20048;-81
2021/07/20 04:30:10;;;;;;;16.98;11.02;;;;;;;15.09;72.43;100725.72;5102571;28;20075;-82
2021/07/20 04:32:45;;;;;;;18.63;11.52;;;;;;;14.98;73.37;100730.91;5093380;28;20056;-82
2021/07/20 04:35:15;;;;;;;21.38;12.25;;;;;;;15.14;73.51;100727.50;5091798;28;20055;-82
2021/07/20 04:37:46;;;;;;;16.70;11.38;;;;;;;15.27;73.22;100732.06;5090887;28;20053;-82
2021/07/20 04:40:15;;;;;;;16.48;11.57;;;;;;;15.38;72.76;100732.50;5090680;28;20063;-82
2021/07/20 04:42:46;;;;;;;15.73;10.90;;;;;;;15.53;72.20;100731.06;5099301;28;20052;-82
2021/07/20 04:45:14;;;;;;;18.63;11.20;;;;;;;15.62;72.36;100743.88;5099703;28;20492;-81
2021/07/20 04:47:43;;;;;;;16.85;10.98;;;;;;;15.72;72.16;100742.66;5099879;28;20048;-81
2021/07/20 04:50:12;;;;;;;17.02;11.25;;;;;;;15.83;71.94;100743.91;5100173;28;20067;-82
2021/07/20 04:52:42;;;;;;;19.83;11.85;;;;;;;15.92;71.87;100738.22;5099326;28;20056;-82
2021/07/20 04:55:11;;;;;;;15.32;10.52;;;;;;;16.03;71.90;100736.59;5099169;28;20051;-81
2021/07/20 04:57:39;;;;;;;15.00;10.65;;;;;;;16.17;71.32;100738.31;5100404;28;20394;-81
2021/07/20 05:00:09;;;;;;;14.48;10.60;;;;;;;16.16;71.00;100745.91;5103819;28;20052;-82
2021/07/20 05:02:40;;;;;;;18.45;11.73;;;;;;;16.14;71.85;100742.63;5104434;28;20055;-82
2021/07/20 05:05:09;;;;;;;19.13;12.32;;;;;;;15.88;72.32;100750.50;5103644;28;20052;-82
2021/07/20 05:07:39;;;;;;;18.10;13.30;;;;;;;16.01;72.02;100749.38;5102879;28;20071;-82
2021/07/20 05:10:07;;;;;;;15.60;11.60;;;;;;;16.26;71.90;100747.47;5103426;28;20490;-81
2021/07/20 05:12:35;;;;;;;15.60;12.15;;;;;;;16.43;71.19;100749.28;5103647;28;20044;-82
2021/07/20 05:15:02;;;;;;;14.43;10.80;;;;;;;16.63;70.28;100744.72;5101634;28;20814;-82
2021/07/20 05:17:32;;;;;;;17.20;10.77;;;;;;;16.78;69.90;100746.88;5082826;28;20148;-82
2021/07/20 05:20:00;;;;;;;15.98;11.15;;;;;;;16.88;69.32;100756.06;5099908;28;20048;-82
2021/07/20 05:22:29;;;;;;;15.40;11.73;;;;;;;16.88;69.25;100756.88;5100039;28;20044;-83
2021/07/20 05:24:56;;;;;;;13.95;11.18;;;;;;;17.00;68.73;100756.06;5100968;28;20059;-81
2021/07/20 05:27:25;;;;;;;14.20;10.57;;;;;;;17.17;68.54;100753.00;5100871;28;20051;-81
2021/07/20 05:29:53;;;;;;;14.65;10.80;;;;;;;17.30;67.98;100753.81;5103534;28;20044;-82
2021/07/20 05:32:23;;;;;;;14.98;10.50;;;;;;;17.42;67.51;100761.44;5104640;28;20048;-82
2021/07/20 05:34:52;;;;;;;14.82;9.98;;;;;;;17.51;67.49;100761.31;5103506;28;20059;-81
2021/07/20 05:37:21;;;;;;;15.55;11.13;;;;;;;17.64;67.08;100763.75;5104112;28;20051;-82
2021/07/20 05:39:52;;;;;;;15.73;10.98;;;;;;;17.79;66.34;100758.56;5098062;28;20063;-82
2021/07/20 05:42:19;;;;;;;14.02;11.38;;;;;;;17.83;66.14;100765.97;5100277;28;20048;-82
2021/07/20 05:44:48;;;;;;;13.93;10.38;;;;;;;17.94;65.72;100765.47;5104521;28;20059;-82
2021/07/20 05:47:24;;;;;;;13.48;10.25;;;;;;;17.98;65.52;100755.13;5124030;28;20058;-83
2021/07/20 05:49:55;;;;;;;17.90;10.77;;;;;;;18.08;65.51;100754.63;5126664;28;20074;-82
2021/07/20 05:52:31;;;;;;;13.13;10.73;;;;;;;18.20;64.84;100760.19;5126104;28;20051;-81
2021/07/20 05:54:59;;;;;;;16.33;11.32;;;;;;;18.35;64.53;100763.41;5105827;28;20409;-82
2021/07/20 05:57:28;;;;;;;17.58;12.35;;;;;;;18.43;63.95;100768.88;5101331;28;20059;-82
2021/07/20 05:59:55;;;;;;;16.23;10.93;;;;;;;18.56;63.79;100771.63;5102405;28;20078;-82
2021/07/20 06:02:24;;;;;;;17.45;12.15;;;;;;;18.66;63.51;100768.28;5103602;28;20493;-83
2021/07/20 06:04:54;;;;;;;16.38;11.95;;;;;;;18.78;63.70;100771.06;5098968;28;20056;-82
2021/07/20 06:07:21;;;;;;;16.48;12.85;;;;;;;17.66;66.98;100771.88;5091850;28;20044;-83
2021/07/20 06:09:50;;;;;;;17.73;12.00;;;;;;;18.35;65.92;100769.06;5099969;28;20500;-83
2021/07/20 06:12:21;;;;;;;15.60;11.60;;;;;;;18.69;64.08;100773.22;5093639;28;20079;-82
2021/07/20 06:14:50;;;;;;;19.73;12.73;;;;;;;18.47;64.30;100780.28;5090214;28;20048;-82
2021/07/20 06:17:23;;;;;;;19.00;12.80;;;;;;;18.87;63.01;100782.19;5099231;28;20051;-83
2021/07/20 06:19:51;;;;;;;17.40;12.27;;;;;;;19.01;62.94;100785.38;5097071;28;20062;-80
2021/07/20 06:22:24;;;;;;;14.82;11.18;;;;;;;19.17;62.81;100778.88;5097651;28;20063;-79
2021/07/20 06:24:53;;;;;;;15.50;11.13;;;;;;;19.29;62.16;100781.63;5097398;28;20052;-80
2021/07/20 06:27:24;;;;;;;18.20;12.73;;;;;;;19.33;61.77;100779.69;5097463;28;20048;-78
2021/07/20 06:29:55;;;;;;;14.80;11.45;;;;;;;19.25;62.15;100778.69;5097417;28;20067;-79
2021/07/20 06:32:24;;;;;;;17.92;13.13;;;;;;;19.06;62.72;100782.25;5099208;28;20063;-79
2021/07/20 06:34:56;;;;;;;18.25;12.82;;;;;;;18.85;63.41;100793.81;5098882;28;20052;-83
2021/07/20 06:37:26;;;;;;;16.10;12.52;;;;;;;19.17;62.72;100787.34;5104620;28;20054;-82
2021/07/20 06:39:54;;;;;;;21.27;13.10;;;;;;;19.43;60.98;100783.97;5105544;28;20052;-83
2021/07/20 06:42:22;;;;;;;19.02;13.40;;;;;;;19.61;60.43;100792.84;5107418;28;20059;-82
2021/07/20 06:44:51;;;;;;;16.98;12.98;;;;;;;19.74;60.29;100788.75;5107491;28;20043;-83
2021/07/20 06:47:19;;;;;;;17.88;13.00;;;;;;;19.97;59.39;100788.03;5107849;28;20052;-83
2021/07/20 06:49:49;;;;;;;15.23;12.30;;;;;;;20.21;58.66;100789.75;5104255;28;20044;-81
2021/07/20 06:52:16;;;;;;;;;;;;;;;20.52;58.07;100793.63;5096679;28;20056;-85
2021/07/20 06:54:45;;;;;;;19.08;13.00;;;;;;;20.76;56.74;100796.09;5102382;28;19924;-85
2021/07/20 06:57:15;;;;;;;17.33;13.05;;;;;;;20.89;56.32;100791.09;5104471;28;20059;-84
2021/07/20 06:59:44;;;;;;;16.20;12.05;;;;;;;21.11;56.72;100786.63;5104347;28;20058;-85
2021/07/20 07:02:19;;;;;;;17.48;12.57;;;;;;;21.12;56.51;100793.91;5102698;28;20060;-82
2021/07/20 07:04:50;;;;;;;16.92;12.60;;;;;;;21.44;55.64;100783.13;5104049;28;20044;-83
2021/07/20 07:07:20;;;;;;;14.88;12.20;;;;;;;21.81;54.02;100785.28;5092704;28;20054;-83
2021/07/20 07:09:50;;;;;;;17.45;12.25;;;;;;;21.85;53.48;100789.00;5103069;28;20055;-83
2021/07/20 07:12:18;;;;;;;18.65;12.07;;;;;;;21.94;53.53;100793.56;5100499;28;20063;-82
2021/07/20 07:14:46;;;;;;;19.17;13.13;;;;;;;22.01;52.64;100788.00;5102652;28;21698;-82
2021/07/20 07:17:14;;;;;;;19.23;12.85;;;;;;;21.98;53.01;100788.75;5098571;28;20058;-82
2021/07/20 07:19:43;;;;;;;18.83;12.82;;;;;;;21.99;52.83;100794.03;5103987;28;20048;-82
2021/07/20 07:22:11;;;;;;;17.20;12.73;;;;;;;22.04;52.84;100795.72;5104199;28;20060;-81
2021/07/20 07:24:40;;;;;;;15.15;12.63;;;;;;;22.27;52.20;100793.63;5098868;28;20055;-81
2021/07/20 07:27:09;;;;;;;16.88;12.77;;;;;;;22.19;52.92;100789.03;5102971;28;20044;-82
2021/07/20 07:29:38;;;;;;;17.60;13.25;;;;;;;22.27;52.14;100799.28;5101473;28;20059;-82
2021/07/20 07:32:07;;;;;;;17.02;12.77;;;;;;;22.50;52.40;100798.34;5103101;28;20483;-82
2021/07/20 07:34:39;;;;;;;15.05;12.30;;;;;;;22.88;51.37;100799.94;5105549;28;20058;-83
2021/07/20 07:37:06;;;;;;;15.40;11.27;;;;;;;23.12;50.62;100800.63;5107040;28;20060;-84
2021/07/20 07:39:36;;;;;;;14.50;10.05;;;;;;;23.41;49.15;100801.66;5106036;28;20056;-84
2021/07/20 07:42:05;;;;;;;14.77;10.82;;;;;;;23.60;48.54;100805.44;5105184;28;20074;-86
2021/07/20 07:44:34;;;;;;;15.73;11.30;;;;;;;23.58;47.88;100805.88;5098525;28;20050;-85
2021/07/20 07:47:02;;;;;;;12.98;10.70;;;;;;;23.59;47.33;100806.66;5099556;28;20071;-81
2021/07/20 07:49:30;;;;;;;14.07;10.50;;;;;;;23.47;48.05;100804.94;5099204;28;20052;-82
2021/07/20 07:51:57;;;;;;;12.20;10.38;;;;;;;23.73;47.47;100798.25;5103546;28;20051;-81
2021/07/20 07:54:26;;;;;;;14.13;11.05;;;;;;;24.45;46.21;100802.25;5099996;28;20044;-82
2021/07/20 07:56:53;;;;;;;13.75;9.45;;;;;;;25.03;43.78;100799.53;5090169;28;20052;-81
2021/07/20 07:59:26;;;;;;;14.63;9.73;;;;;;;25.26;43.24;100802.03;5099285;28;20043;-82
2021/07/20 08:01:56;;;;;;;12.60;9.20;;;;;;;25.36;43.66;100795.50;5092473;28;20485;-82
2021/07/20 08:04:28;;;;;;;12.10;9.02;;;;;;;26.73;39.70;100778.75;5106596;28;20060;-82
2021/07/20 08:06:58;;;;;;;10.07;7.40;;;;;;;27.94;37.52;100796.13;5099459;28;20052;-83
2021/07/20 08:09:27;;;;;;;9.30;7.32;;;;;;;28.25;35.15;100794.09;5103956;28;20060;-83
2021/07/20 08:11:57;;;;;;;10.23;8.02;;;;;;;28.48;35.29;100789.72;5103709;28;20040;-82
2021/07/20 08:14:25;;;;;;;10.02;6.75;;;;;;;29.18;33.96;100794.03;5101623;28;20052;-82
2021/07/20 08:16:59;;;;;;;10.32;6.78;;;;;;;28.90;33.95;100796.91;5098735;28;20062;-83
2021/07/20 08:19:31;;;;;;;11.63;7.18;;;;;;;28.33;34.70;100797.69;5101054;28;20048;-82
2021/07/20 08:22:00;;;;;;;8.98;6.65;;;;;;;28.63;34.29;100794.03;5098195;28;20060;-82
2021/07/20 08:24:29;;;;;;;8.77;6.80;;;;;;;28.82;33.45;100788.84;5101977;28;20052;-82
2021/07/20 08:27:02;;;;;;;8.95;6.25;;;;;;;28.97;33.48;100798.03;5102128;28;20051;-82
2021/07/20 08:29:34;;;;;;;9.85;6.47;;;;;;;29.80;32.33;100801.16;5101904;28;20045;-82
2021/07/20 08:32:09;;;;;;;8.70;6.57;;;;;;;30.84;30.06;100795.25;5085147;28;20052;-84
2021/07/20 08:34:43;;;;;;;10.20;6.40;;;;;;;32.11;28.74;100800.25;5101075;28;20071;-79
2021/07/20 08:37:12;;;;;;;9.57;6.60;;;;;;;32.98;27.20;100787.69;5107226;28;20052;-83
2021/07/20 08:39:44;;;;;;;9.48;6.50;;;;;;;34.11;25.21;100792.03;5106705;28;20048;-79
2021/07/20 08:42:22;;;;;;;8.18;5.93;;;;;;;34.43;24.24;100784.22;5104078;28;20516;-82
2021/07/20 08:45:07;;;;;;;8.70;6.18;;;;;;;34.98;22.60;100790.28;5103125;28;20052;-84
2021/07/20 08:47:52;;;;;;;7.65;5.60;;;;;;;35.14;22.50;100790.03;5101738;28;20063;-82
2021/07/20 08:50:28;;;;;;;6.72;5.50;;;;;;;35.30;22.66;100788.97;5103774;28;20062;-83
2021/07/20 08:53:06;;;;;;;7.55;5.93;;;;;;;35.69;21.81;100786.44;5105155;28;20059;-82
2021/07/20 08:55:39;;;;;;;7.30;5.93;;;;;;;36.62;21.29;100790.06;5101369;28;20071;-81
2021/07/20 08:58:16;;;;;;;7.75;5.47;;;;;;;37.32;20.06;100800.75;5111630;28;20056;-81
2021/07/20 09:00:47;;;;;;;6.93;6.15;;;;;;;38.21;18.84;100786.47;5108034;28;20465;-81
2021/07/20 09:03:33;;;;;;;7.35;6.15;;;;;;;38.87;18.04;100790.25;5110090;28;20056;-84
2021/07/20 09:06:05;;;;;;;7.15;5.57;;;;;;;38.33;18.71;100799.94;5102091;28;20056;-84
2021/07/20 09:08:39;;;;;;;7.88;5.20;;;;;;;37.14;19.61;100792.94;5100058;28;20048;-81
2021/07/20 09:11:13;;;;;;;9.52;5.45;;;;;;;35.94;21.15;100802.72;5102625;28;20052;-83
2021/07/20 09:13:47;;;;;;;6.88;5.70;;;;;;;35.28;21.15;100796.50;5105382;28;20382;-81
2021/07/20 09:16:29;;;;;;;8.00;6.18;;;;;;;34.95;20.62;100797.03;5112292;28;20044;-81
2021/07/20 09:19:03;;;;;;;6.68;5.15;;;;;;;34.35;22.61;100801.84;5104831;28;20055;-81
2021/07/20 09:21:33;;;;;;;9.52;6.60;;;;;;;35.51;21.35;100798.00;5089897;28;20064;-81
2021/07/20 09:24:09;;;;;;;7.10;5.47;;;;;;;36.88;19.60;100804.19;5100736;28;20488;-80
2021/07/20 09:26:42;;;;;;;6.28;5.13;;;;;;;35.75;20.87;100798.22;5105560;28;20052;-82
2021/07/20 09:29:15;;;;;;;8.82;5.15;;;;;;;35.19;21.06;100808.88;5108382;28;20051;-80
2021/07/20 09:32:06;;;;;;;6.13;5.03;;;;;;;35.62;21.61;100807.03;5105416;28;20058;-80
2021/07/20 09:34:50;;;;;;;6.93;5.07;;;;;;;34.55;21.43;100806.47;5100262;28;20044;-80
2021/07/20 09:37:23;;;;;;;5.65;4.88;;;;;;;33.59;22.99;100807.94;5105927;28;20059;-80
2021/07/20 09:40:00;;;;;;;7.00;5.38;;;;;;;32.98;23.16;100805.00;5104110;28;20079;-81
2021/07/20 09:42:45;;;;;;;6.35;4.95;;;;;;;32.43;24.08;100798.47;5103792;28;20055;-80
2021/07/20 09:45:17;;;;;;;6.82;6.00;;;;;;;34.32;21.66;100805.69;5102523;28;20496;-82
2021/07/20 09:47:54;;;;;;;7.65;5.72;;;;;;;36.61;19.51;100796.34;5107771;28;20066;-81
2021/07/20 09:50:25;;;;;;;6.13;5.43;;;;;;;36.67;19.14;100798.13;5100813;28;20055;-82
2021/07/20 09:53:33;;;;;;;6.80;5.30;;;;;;;37.44;18.39;100801.78;5100432;28;20056;-79
2021/07/20 09:56:18;;;;;;;7.47;4.95;;;;;;;35.92;19.05;100808.19;5089592;28;20508;-80
2021/07/20 09:58:55;;;;;;;6.57;4.88;;;;;;;34.97;20.62;100811.84;5104414;28;20048;-84
2021/07/20 10:01:29;;;;;;;6.93;5.35;;;;;;;34.88;20.46;100808.88;5092747;28;20052;-85
2021/07/20 10:04:04;;;;;;;7.47;6.00;;;;;;;37.15;18.54;100804.06;5080600;28;20053;-86
2021/07/20 10:06:40;;;;;;;6.60;4.88;;;;;;;36.73;19.09;100807.78;5094884;28;20052;-86
2021/07/20 10:09:14;;;;;;;5.68;4.38;;;;;;;36.61;18.51;100802.16;5089896;28;20056;-86
2021/07/20 10:11:48;;;;;;;7.22;5.00;;;;;;;35.46;20.00;100811.03;5098306;28;20428;-80
2021/07/20 10:14:25;;;;;;;7.40;5.10;;;;;;;34.63;20.44;100806.97;5094106;28;20059;-79
2021/07/20 10:17:01;;;;;;;7.10;5.65;;;;;;;34.82;20.40;100802.09;5108150;28;20417;-78
2021/07/20 10:19:37;;;;;;;6.55;5.85;;;;;;;35.89;19.44;100803.38;5099108;28;20047;-80
2021/07/20 10:22:11;;;;;;;6.20;5.13;;;;;;;35.37;19.88;100794.44;5082180;28;20604;-79
2021/07/20 10:24:49;;;;;;;8.68;5.75;;;;;;;35.21;20.11;100800.50;5101858;28;20489;-79
2021/07/20 10:27:25;;;;;;;7.50;5.88;;;;;;;37.45;18.24;100801.28;5082939;28;20056;-80
2021/07/20 10:29:59;;;;;;;7.55;5.80;;;;;;;39.25;15.91;100791.38;5088819;28;20047;-78
2021/07/20 10:32:33;;;;;;;8.23;5.47;;;;;;;40.91;15.44;100789.28;5104691;28;20075;-79
2021/07/20 10:35:06;;;;;;;6.47;5.63;;;;;;;41.77;14.49;100795.13;5105463;28;20059;-79
2021/07/20 10:37:40;;;;;;;6.07;5.10;;;;;;;42.40;13.58;100796.06;5103142;28;20066;-81
2021/07/20 10:40:14;;;;;;;6.60;5.70;;;;;;;43.56;12.96;100800.75;5083937;28;20048;-80
2021/07/20 10:42:50;;;;;;;15.13;5.80;;;;;;;44.70;11.55;100799.53;5100423;28;20056;-81
2021/07/20 10:45:19;;;;;;;5.95;5.43;;;;;;;45.34;11.67;100801.31;5101197;28;20040;-81
2021/07/20 10:47:57;;;;;;;7.53;5.65;;;;;;;45.94;10.54;100792.28;5102738;28;20263;-82
2021/07/20 10:50:28;;;;;;;;;;;;;;;46.22;10.43;100788.13;5104370;28;20048;-82
2021/07/20 10:53:06;;;;;;;8.18;5.75;;;;;;;46.18;10.06;100800.25;5084924;28;19927;-81
2021/07/20 10:55:43;;;;;;;6.88;5.13;;;;;;;46.73;10.63;100796.16;5101698;28;20056;-81
2021/07/20 10:58:23;;;;;;;7.20;5.40;;;;;;;47.24;9.35;100786.41;5102401;28;20063;-82
2021/07/20 11:00:59;;;;;;;7.25;5.47;;;;;;;47.58;9.04;100793.19;5101171;28;20052;-82
2021/07/20 11:03:36;;;;;;;7.10;5.65;;;;;;;47.49;9.41;100790.69;5098010;28;20055;-81
2021/07/20 11:06:06;;;;;;;6.53;5.93;;;;;;;47.86;9.15;100793.94;5095100;28;20055;-81
2021/07/20 11:08:41;;;;;;;6.57;5.53;;;;;;;47.95;8.17;100790.53;5098144;28;20048;-82
2021/07/20 11:11:14;;;;;;;6.32;5.20;;;;;;;47.41;8.69;100786.84;5102329;28;20044;-82
2021/07/20 11:13:42;;;;;;;6.15;5.20;;;;;;;47.40;9.00;100776.41;5096418;28;20110;-81
2021/07/20 11:16:11;;;;;;;6.57;5.60;;;;;;;47.97;8.81;100773.03;5091957;28;20055;-80
2021/07/20 11:18:41;;;;;;;6.35;5.75;;;;;;;48.09;8.55;100770.59;5094424;28;20056;-80
2021/07/20 11:21:12;;;;;;;6.75;5.20;;;;;;;47.15;10.25;100778.81;5092542;28;20044;-80
2021/07/20 11:23:44;;;;;;;6.32;5.55;;;;;;;45.05;10.80;100779.47;5077563;28;20044;-80
2021/07/20 11:26:13;;;;;;;6.55;5.85;;;;;;;45.58;9.94;100776.97;5087187;28;20409;-80
2021/07/20 11:28:43;;;;;;;6.85;5.70;;;;;;;45.24;10.32;100776.56;5077575;28;20044;-80
2021/07/20 11:31:13;;;;;;;6.20;5.57;;;;;;;45.66;9.92;100777.16;5098011;28;20052;-82
2021/07/20 11:33:45;;;;;;;6.00;5.40;;;;;;;46.26;9.34;100767.97;5104911;28;20404;-82
2021/07/20 11:36:15;;;;;;;6.20;5.38;;;;;;;46.80;9.69;100766.03;5102667;28;20058;-83
2021/07/20 11:38:46;;;;;;;6.45;5.60;;;;;;;46.72;9.66;100774.72;5099610;28;20043;-82